Time;durP1;ratioP1;P1;durP2;ratioP2;P2;SDS_P1;SDS_P2;PMS_P1;PMS_P2;Temp;Humidity;BMP_temperature;BMP_pressure;BME280_temperature;BME280_humidity;BME280_pressure;Samples;Min_cycle;Max_cycle;Signal;HPM_P1;HPM_P2
2024/03/10 00:00:24;;;;;;;1.17;1.17;;;;;;;11.98;52.62;99518.28;4479028;31;34289;-81
2024/03/10 00:02:54;;;;;;;3.08;2.70;;;;;;;11.78;53.21;99525.47;4483551;31;33945;-81
2024/03/10 00:05:22;;;;;;;0.82;0.82;;;;;;;11.64;53.48;99521.84;4480121;31;33919;-81
2024/03/10 00:07:51;;;;;;;20.73;0.90;;;;;;;11.74;53.24;99523.06;4466462;31;32738;-81
2024/03/10 00:10:19;;;;;;;1.87;1.58;;;;;;;11.56;53.66;99516.09;4477577;31;33773;-81
2024/03/10 00:12:48;;;;;;;1.17;1.15;;;;;;;11.57;53.57;99515.16;4482087;31;33031;-81
2024/03/10 00:15:19;;;;;;;1.33;1.25;;;;;;;11.59;53.64;99514.16;4482982;31;33614;-81
2024/03/10 00:17:48;;;;;;;2.17;1.45;;;;;;;11.60;53.41;99502.62;4467127;31;34373;-81
2024/03/10 00:20:19;;;;;;;0.85;0.55;;;;;;;11.44;53.78;99494.66;4492990;31;34212;-81
2024/03/10 00:22:48;;;;;;;1.25;0.93;;;;;;;11.44;53.78;99483.19;4484340;31;32107;-81
2024/03/10 00:25:19;;;;;;;3.05;1.05;;;;;;;11.31;53.69;99490.94;4477695;31;33618;-81
2024/03/10 00:27:49;;;;;;;1.80;1.65;;;;;;;11.25;53.78;99483.28;4477912;31;34168;-81
2024/03/10 00:30:17;;;;;;;1.52;1.42;;;;;;;11.48;53.48;99475.03;4479381;31;34998;-81
2024/03/10 00:32:46;;;;;;;0.75;0.75;;;;;;;11.59;53.00;99476.28;4477851;31;33204;-81
2024/03/10 00:35:14;;;;;;;1.67;1.58;;;;;;;11.34;53.37;99477.53;4491173;31;33554;-81
2024/03/10 00:37:42;;;;;;;0.47;0.47;;;;;;;11.27;53.67;99482.28;4489749;31;33968;-81
2024/03/10 00:40:09;;;;;;;2.85;1.65;;;;;;;11.48;53.16;99479.47;4475798;31;33117;-81
2024/03/10 00:42:37;;;;;;;3.15;1.30;;;;;;;11.37;53.40;99471.25;4477599;31;33566;-81
2024/03/10 00:45:06;;;;;;;1.60;1.17;;;;;;;11.29;53.41;99467.19;4492869;31;33472;-81
2024/03/10 00:47:36;;;;;;;1.30;1.30;;;;;;;11.52;52.92;99460.72;4478320;31;33802;-81
2024/03/10 00:50:06;;;;;;;1.52;1.42;;;;;;;11.25;53.66;99451.56;4480144;31;33484;-81
2024/03/10 00:52:35;;;;;;;1.45;1.35;;;;;;;11.48;53.09;99451.22;4488960;31;33374;-81
2024/03/10 00:55:05;;;;;;;2.85;1.23;;;;;;;11.32;53.57;99442.41;4477925;31;33608;-81
2024/03/10 00:57:32;;;;;;;2.67;2.20;;;;;;;10.87;54.68;99441.22;4476235;31;34806;-81
2024/03/10 01:00:01;;;;;;;0.77;0.75;;;;;;;10.92;54.79;99451.53;4478465;31;34559;-81
2024/03/10 01:02:29;;;;;;;2.25;0.82;;;;;;;11.12;54.24;99461.09;4478110;31;33345;-81
2024/03/10 01:04:56;;;;;;;0.82;0.82;;;;;;;11.05;54.44;99459.69;4480570;31;33855;-81
2024/03/10 01:07:24;;;;;;;4.62;2.42;;;;;;;11.27;53.87;99447.09;4466922;31;32958;-81
2024/03/10 01:09:52;;;;;;;3.72;1.17;;;;;;;11.32;53.55;99452.13;4489318;31;33788;-82
2024/03/10 01:12:20;;;;;;;0.47;0.47;;;;;;;11.13;54.08;99453.09;4479700;31;33669;-81
2024/03/10 01:14:48;;;;;;;2.75;2.55;;;;;;;11.11;54.57;99467.28;4489551;31;33339;-81
2024/03/10 01:17:15;;;;;;;2.67;1.48;;;;;;;11.25;54.15;99459.50;4481255;31;33972;-81
2024/03/10 01:19:44;;;;;;;1.10;1.02;;;;;;;11.53;53.42;99454.47;4481463;31;34182;-80
2024/03/10 01:22:16;;;;;;;1.65;1.33;;;;;;;11.66;52.82;99456.47;4478256;31;34214;-80
2024/03/10 01:24:44;;;;;;;4.70;2.17;;;;;;;11.22;54.27;99464.97;4476182;31;32230;-80
2024/03/10 01:27:12;;;;;;;0.70;0.60;;;;;;;11.37;53.95;99456.25;4479129;31;33426;-81
2024/03/10 01:29:39;;;;;;;2.33;1.52;;;;;;;11.60;53.62;99451.53;4491854;31;34803;-81
2024/03/10 01:32:08;;;;;;;0.52;0.52;;;;;;;11.64;53.20;99458.38;4478964;31;33525;-81
2024/03/10 01:34:36;;;;;;;0.40;0.40;;;;;;;11.44;53.68;99457.63;4490353;31;33883;-81
2024/03/10 01:37:04;;;;;;;0.93;0.88;;;;;;;11.23;54.33;99456.09;4490744;31;34258;-81
2024/03/10 01:39:31;;;;;;;1.55;1.45;;;;;;;11.40;53.98;99456.09;4475275;31;33456;-81
2024/03/10 01:41:59;;;;;;;1.08;0.98;;;;;;;11.53;53.75;99454.47;4477459;31;33590;-81
2024/03/10 01:44:28;;;;;;;2.53;2.33;;;;;;;11.69;53.12;99453.69;4477420;31;33818;-81
2024/03/10 01:46:56;;;;;;;0.82;0.80;;;;;;;11.86;52.56;99452.78;4489549;31;33945;-81
2024/03/10 01:49:24;;;;;;;1.27;1.17;;;;;;;11.48;53.63;99453.88;4492658;31;34868;-81
2024/03/10 01:51:52;;;;;;;0.32;0.32;;;;;;;11.51;53.64;99443.16;4467664;31;33308;-81
2024/03/10 01:54:25;;;;;;;1.55;1.42;;;;;;;11.41;53.98;99441.94;4489249;31;33771;-81
2024/03/10 01:56:53;;;;;;;0.43;0.43;;;;;;;11.24;54.55;99436.66;4465118;31;32959;-81
2024/03/10 01:59:21;;;;;;;1.73;1.62;;;;;;;11.57;53.90;99433.19;4477438;31;34798;-81
2024/03/10 02:01:50;;;;;;;1.33;1.30;;;;;;;11.67;53.37;99424.66;4467190;31;33016;-80
2024/03/10 02:04:19;;;;;;;2.37;1.15;;;;;;;11.81;53.07;99429.19;4492102;31;33496;-81
2024/03/10 02:06:47;;;;;;;3.95;1.00;;;;;;;11.51;53.78;99431.72;4479626;31;33713;-81
2024/03/10 02:09:16;;;;;;;1.12;1.12;;;;;;;11.36;54.53;99446.59;4492636;31;34843;-80
2024/03/10 02:11:44;;;;;;;0.32;0.32;;;;;;;11.12;55.11;99429.37;4464444;31;33788;-80
2024/03/10 02:14:13;;;;;;;1.37;1.00;;;;;;;11.24;55.29;99428.72;4492000;31;34562;-80
2024/03/10 02:16:41;;;;;;;0.82;0.82;;;;;;;11.13;55.16;99424.00;4478123;31;32857;-80
2024/03/10 02:19:10;;;;;;;0.47;0.28;;;;;;;11.06;55.35;99425.25;4489147;31;34202;-80
2024/03/10 02:21:37;;;;;;;0.05;0.05;;;;;;;11.07;55.63;99415.56;4478594;31;33668;-80
2024/03/10 02:24:19;;;;;;;0.80;0.80;;;;;;;10.42;57.38;99418.78;4491067;31;33776;-80
2024/03/10 02:26:48;;;;;;;3.08;2.22;;;;;;;10.52;57.43;99414.78;4492323;31;33951;-80
2024/03/10 02:29:20;;;;;;;0.65;0.65;;;;;;;10.72;56.66;99405.84;4479922;31;34354;-80
2024/03/10 02:48:31;;;;;;;1.35;1.02;;;;;;;10.65;57.31;99408.88;4492579;31;33678;-81
2024/03/10 02:50:59;;;;;;;3.12;1.73;;;;;;;10.82;56.64;99400.94;4472621;31;34071;-80
2024/03/10 02:53:26;;;;;;;0.85;0.85;;;;;;;10.39;57.86;99392.53;4464919;31;32994;-81
2024/03/10 02:55:55;;;;;;;2.55;1.60;;;;;;;10.42;57.71;99386.28;4480487;31;32732;-81
2024/03/10 02:58:22;;;;;;;1.00;0.98;;;;;;;10.33;57.91;99387.56;4493726;31;33737;-80
2024/03/10 03:00:50;;;;;;;2.17;1.45;;;;;;;10.28;58.37;99380.81;4480936;31;34094;-80
2024/03/10 03:03:18;;;;;;;0.30;0.30;;;;;;;10.26;58.24;99383.53;4476872;31;34454;-80
2024/03/10 03:05:46;;;;;;;0.45;0.45;;;;;;;10.10;58.55;99377.25;4475935;31;33260;-80
2024/03/10 03:08:13;;;;;;;4.47;1.45;;;;;;;10.52;57.54;99372.53;4475902;31;33027;-80
2024/03/10 03:10:42;;;;;;;0.50;0.50;;;;;;;10.45;57.70;99371.16;4488460;31;34060;-80
2024/03/10 03:13:10;;;;;;;0.52;0.52;;;;;;;10.13;58.58;99367.41;4492119;31;34397;-80
2024/03/10 03:15:38;;;;;;;1.35;1.23;;;;;;;10.36;57.78;99366.31;4461597;31;32492;-80
2024/03/10 03:18:07;;;;;;;4.20;1.40;;;;;;;10.34;58.16;99367.31;4478023;31;34360;-81
2024/03/10 03:20:35;;;;;;;2.30;1.60;;;;;;;9.97;59.52;99363.81;4476827;31;34218;-81
2024/03/10 03:23:04;;;;;;;1.70;1.60;;;;;;;10.31;58.42;99365.69;4474904;31;33600;-81
2024/03/10 03:25:32;;;;;;;1.30;1.20;;;;;;;10.30;58.37;99363.13;4476432;32;34656;-81
2024/03/10 03:28:00;;;;;;;8.07;1.37;;;;;;;10.35;58.09;99353.19;4488861;31;34755;-80
2024/03/10 03:30:30;;;;;;;0.20;0.20;;;;;;;10.35;58.32;99353.19;4477627;31;34027;-80
2024/03/10 03:32:58;;;;;;;0.85;0.85;;;;;;;10.62;57.27;99356.22;4492650;31;33584;-80
2024/03/10 03:35:26;;;;;;;1.75;1.48;;;;;;;10.15;58.93;99356.78;4477289;31;33113;-81
2024/03/10 03:37:53;;;;;;;2.37;2.17;;;;;;;10.24;58.75;99359.00;4491770;31;34819;-80
2024/03/10 03:40:23;;;;;;;0.45;0.45;;;;;;;10.34;58.37;99354.97;4464012;31;34815;-80
2024/03/10 03:42:50;;;;;;;0.80;0.77;;;;;;;10.22;58.64;99337.09;4476845;31;33650;-80
2024/03/10 03:45:19;;;;;;;1.25;1.25;;;;;;;10.21;58.61;99324.84;4487971;31;34633;-80
2024/03/10 03:47:46;;;;;;;1.17;1.08;;;;;;;10.23;58.66;99321.19;4487923;31;33644;-81
2024/03/10 03:50:15;;;;;;;1.33;1.23;;;;;;;10.30;58.44;99319.09;4486222;31;160335;-79
2024/03/10 03:52:43;;;;;;;0.88;0.43;;;;;;;10.07;59.11;99324.66;4477838;31;34245;-79
2024/03/10 03:55:10;;;;;;;2.45;2.28;;;;;;;10.21;58.67;99332.75;4476536;31;32914;-79
2024/03/10 03:57:38;;;;;;;1.10;1.10;;;;;;;9.89;59.74;99327.25;4474306;31;32600;-80
2024/03/10 04:00:12;;;;;;;1.42;1.35;;;;;;;9.66;60.57;99332.78;4489660;31;34816;-81
2024/03/10 04:02:40;;;;;;;1.10;1.05;;;;;;;10.10;59.22;99332.41;4476058;31;33916;-80
2024/03/10 04:05:08;;;;;;;1.37;1.10;;;;;;;10.21;58.55;99325.69;4463149;31;33787;-80
2024/03/10 04:07:36;;;;;;;0.62;0.62;;;;;;;10.01;59.31;99328.44;4490291;31;32833;-81
2024/03/10 04:10:09;;;;;;;1.10;1.10;;;;;;;10.32;58.70;99333.09;4478560;31;34219;-81
2024/03/10 04:12:37;;;;;;;0.85;0.85;;;;;;;10.08;59.07;99334.28;4479680;31;33719;-81
2024/03/10 04:15:06;;;;;;;1.10;1.00;;;;;;;9.96;59.43;99336.56;4488234;31;33977;-81
2024/03/10 04:17:33;;;;;;;2.97;2.25;;;;;;;10.23;58.76;99329.09;4479183;31;33974;-81
2024/03/10 04:20:02;;;;;;;7.28;2.35;;;;;;;10.37;58.25;99331.06;4475830;31;33082;-81
2024/03/10 04:22:30;;;;;;;1.77;1.48;;;;;;;10.17;58.99;99334.69;4476960;31;32695;-81
2024/03/10 04:24:58;;;;;;;2.42;0.82;;;;;;;10.27;58.98;99335.12;4491825;31;33835;-81
2024/03/10 04:27:25;;;;;;;0.68;0.68;;;;;;;10.31;58.87;99341.94;4477673;31;34001;-82
2024/03/10 04:29:54;;;;;;;1.42;1.33;;;;;;;10.44;58.56;99335.12;4477290;31;34906;-81
2024/03/10 04:32:22;;;;;;;3.28;2.62;;;;;;;10.27;59.08;99334.25;4476850;31;32863;-82
2024/03/10 04:34:50;;;;;;;1.08;1.00;;;;;;;10.37;58.90;99336.34;4483245;31;33841;-81
2024/03/10 04:37:21;;;;;;;2.20;1.25;;;;;;;10.41;58.75;99347.63;4488682;31;33383;-82
2024/03/10 04:39:49;;;;;;;1.77;1.35;;;;;;;10.58;58.17;99349.38;4480010;31;33718;-81
2024/03/10 04:42:17;;;;;;;1.85;1.58;;;;;;;10.33;58.82;99342.72;4491490;31;31878;-81
2024/03/10 04:44:45;;;;;;;0.05;0.05;;;;;;;10.33;59.19;99345.34;4479827;31;33139;-82
2024/03/10 04:47:13;;;;;;;1.10;1.10;;;;;;;10.77;57.97;99344.87;4477292;31;33013;-81
2024/03/10 04:49:40;;;;;;;2.20;1.30;;;;;;;10.13;59.46;99342.81;4466946;31;33237;-81
2024/03/10 04:52:08;;;;;;;0.60;0.57;;;;;;;10.07;59.67;99337.84;4466714;31;32512;-80
2024/03/10 04:54:36;;;;;;;1.02;0.90;;;;;;;10.25;59.26;99344.87;4478688;31;33767;-81
2024/03/10 04:57:04;;;;;;;1.62;1.55;;;;;;;10.04;60.03;99338.84;4491507;31;33946;-81
2024/03/10 04:59:34;;;;;;;1.45;1.35;;;;;;;9.92;60.52;99342.94;4482437;31;33072;-81
2024/03/10 05:02:02;;;;;;;1.05;1.05;;;;;;;10.34;59.01;99338.28;4477889;31;32843;-81
2024/03/10 05:04:30;;;;;;;2.08;1.12;;;;;;;9.97;60.03;99333.03;4480955;31;34526;-81
2024/03/10 05:06:58;;;;;;;1.52;0.88;;;;;;;10.38;58.94;99326.66;4477792;31;33766;-80
2024/03/10 05:09:25;;;;;;;8.52;0.77;;;;;;;10.09;59.99;99322.78;4478590;31;34247;-80
2024/03/10 05:11:53;;;;;;;1.35;1.10;;;;;;;10.25;59.31;99321.13;4480816;31;33437;-80
2024/03/10 05:14:21;;;;;;;0.75;0.75;;;;;;;10.28;59.39;99330.69;4488939;31;33843;-79
2024/03/10 05:16:49;;;;;;;2.12;2.03;;;;;;;9.79;60.59;99328.63;4479519;31;33938;-80
2024/03/10 05:19:16;;;;;;;1.27;1.17;;;;;;;9.96;60.40;99320.75;4495079;31;34202;-79
2024/03/10 05:21:47;;;;;;;4.15;2.83;;;;;;;10.00;60.11;99324.09;4477863;31;32175;-79
2024/03/10 05:24:15;;;;;;;2.50;2.30;;;;;;;10.25;59.49;99334.31;4493679;31;33792;-80
2024/03/10 05:26:42;;;;;;;1.75;1.27;;;;;;;10.19;59.79;99329.31;4491175;31;34028;-80
2024/03/10 05:29:10;;;;;;;0.73;0.73;;;;;;;10.22;59.57;99339.72;4477356;31;32885;-80
2024/03/10 05:31:37;;;;;;;1.37;0.45;;;;;;;9.95;60.55;99348.06;4491298;31;33779;-80
2024/03/10 05:34:05;;;;;;;1.02;1.02;;;;;;;10.36;59.43;99347.84;4490156;31;33824;-80
2024/03/10 05:36:33;;;;;;;1.30;1.20;;;;;;;10.48;58.87;99352.50;4492836;31;33909;-81
2024/03/10 05:39:01;;;;;;;2.03;1.92;;;;;;;10.09;60.35;99349.19;4472516;31;33615;-80
2024/03/10 05:41:28;;;;;;;8.75;2.70;;;;;;;10.11;60.13;99344.66;4477198;31;33680;-80
2024/03/10 05:43:56;;;;;;;1.17;1.17;;;;;;;10.06;60.24;99344.87;4478663;31;34019;-80
2024/03/10 05:46:24;;;;;;;1.08;1.00;;;;;;;10.01;60.70;99338.97;4471615;31;32992;-80
2024/03/10 05:48:55;;;;;;;8.35;2.15;;;;;;;10.06;60.62;99341.41;4488481;31;34071;-81
2024/03/10 05:51:23;;;;;;;2.07;1.73;;;;;;;10.18;59.74;99335.53;4478636;31;33372;-80
2024/03/10 05:53:51;;;;;;;2.83;2.58;;;;;;;9.96;60.54;99336.56;4492052;31;34903;-80
2024/03/10 05:56:19;;;;;;;1.02;1.02;;;;;;;10.16;60.17;99327.69;4477315;31;33585;-80
2024/03/10 05:58:47;;;;;;;1.23;0.75;;;;;;;10.20;59.90;99329.22;4495294;31;34191;-80
2024/03/10 06:01:21;;;;;;;0.30;0.30;;;;;;;9.90;61.10;99338.66;4478344;31;33605;-80
2024/03/10 06:03:53;;;;;;;0.68;0.68;;;;;;;10.28;59.76;99331.53;4481313;31;33979;-80
2024/03/10 06:06:22;;;;;;;0.20;0.20;;;;;;;10.26;59.93;99325.50;4490982;31;34015;-81
2024/03/10 06:08:50;;;;;;;2.45;1.12;;;;;;;10.01;60.51;99333.72;4489362;31;34104;-81
2024/03/10 06:11:18;;;;;;;0.65;0.65;;;;;;;9.75;61.97;99348.16;4477536;31;33388;-82
2024/03/10 06:13:46;;;;;;;2.05;1.95;;;;;;;9.82;62.22;99354.84;4489459;31;33539;-81
2024/03/10 06:16:15;;;;;;;1.25;1.15;;;;;;;9.90;63.02;99352.69;4478729;31;34019;-81
2024/03/10 06:27:03;;;;;;;1.45;1.35;;;;;;;10.62;61.47;99356.22;4478087;31;34900;-80
2024/03/10 06:29:31;;;;;;;0.35;0.35;;;;;;;10.29;62.62;99359.63;4476242;31;32788;-80
2024/03/10 06:31:59;;;;;;;2.05;1.85;;;;;;;10.52;61.92;99361.97;4476126;31;34398;-80
2024/03/10 06:34:27;;;;;;;2.37;2.17;;;;;;;10.33;62.14;99362.97;4489671;31;33505;-80
2024/03/10 06:36:55;;;;;;;5.70;1.25;;;;;;;10.20;63.06;99367.97;4489858;31;34747;-81
2024/03/10 06:39:24;;;;;;;2.60;1.48;;;;;;;10.23;63.17;99381.00;4467586;31;34171;-81
2024/03/10 06:41:52;;;;;;;1.98;1.87;;;;;;;10.29;62.69;99393.06;4489476;31;33776;-81
2024/03/10 06:44:21;;;;;;;1.80;1.17;;;;;;;10.71;61.38;99382.16;4477719;31;32871;-81
2024/03/10 06:46:50;;;;;;;1.50;0.62;;;;;;;10.77;61.06;99366.00;4477623;31;34040;-82
2024/03/10 06:49:18;;;;;;;0.57;0.57;;;;;;;10.41;62.34;99372.22;4493027;31;34744;-81
2024/03/10 06:51:46;;;;;;;0.52;0.47;;;;;;;9.57;65.45;99380.66;4466295;31;33242;-81
2024/03/10 06:54:14;;;;;;;1.35;0.55;;;;;;;9.65;65.51;99374.09;4489105;31;34152;-81
2024/03/10 06:56:41;;;;;;;1.50;1.45;;;;;;;10.15;64.17;99368.19;4465515;31;33477;-81
2024/03/10 06:59:09;;;;;;;0.50;0.50;;;;;;;9.99;64.59;99354.91;4490841;31;34011;-81
2024/03/10 07:01:47;;;;;;;3.78;2.78;;;;;;;10.04;64.53;99361.72;4478803;31;32200;-80
2024/03/10 07:04:15;;;;;;;1.75;1.65;;;;;;;9.99;65.33;99375.16;4467165;31;33106;-80
2024/03/10 07:06:42;;;;;;;1.02;1.02;;;;;;;9.97;65.61;99364.69;4477361;31;33000;-80
2024/03/10 07:09:10;;;;;;;1.12;1.12;;;;;;;10.01;65.55;99358.31;4477350;31;33416;-81
2024/03/10 07:11:44;;;;;;;2.87;2.65;;;;;;;10.06;65.64;99363.34;4491005;31;33837;-80
2024/03/10 07:14:12;;;;;;;1.52;1.42;;;;;;;10.35;64.79;99369.00;4476013;31;33266;-80
2024/03/10 07:16:47;;;;;;;0.73;0.73;;;;;;;9.82;66.30;99360.13;4463346;31;33092;-80
2024/03/10 07:19:18;;;;;;;3.15;1.05;;;;;;;9.52;67.40;99364.19;4477331;31;32893;-80
2024/03/10 07:21:46;;;;;;;2.55;2.00;;;;;;;9.75;67.07;99358.72;4479393;31;32971;-80
2024/03/10 07:24:15;;;;;;;1.35;1.17;;;;;;;10.00;66.14;99359.22;4477867;31;33592;-80
2024/03/10 07:26:43;;;;;;;2.15;1.98;;;;;;;10.05;66.00;99359.00;4475802;31;34425;-81
2024/03/10 07:29:11;;;;;;;3.17;1.20;;;;;;;10.14;65.91;99370.91;4476222;31;34057;-81
2024/03/10 07:31:38;;;;;;;1.27;1.20;;;;;;;10.30;65.47;99374.53;4476638;31;32703;-81
2024/03/10 07:34:07;;;;;;;0.60;0.60;;;;;;;10.28;65.32;99368.47;4478246;31;34022;-80
2024/03/10 07:36:35;;;;;;;2.53;2.33;;;;;;;10.44;64.78;99366.81;4491929;31;33952;-80
2024/03/10 07:39:06;;;;;;;1.35;0.80;;;;;;;10.39;65.63;99374.06;4473246;31;34622;-81
2024/03/10 07:41:34;;;;;;;0.47;0.40;;;;;;;10.50;64.76;99377.03;4479378;31;32471;-81
2024/03/10 07:44:03;;;;;;;1.30;0.90;;;;;;;10.23;65.73;99373.09;4464701;31;32700;-81
2024/03/10 07:46:32;;;;;;;2.25;1.80;;;;;;;10.35;65.10;99359.34;4476463;31;34322;-81
2024/03/10 07:49:02;;;;;;;3.10;2.90;;;;;;;10.79;63.59;99350.94;4489203;31;32568;-81
2024/03/10 07:51:30;;;;;;;0.50;0.50;;;;;;;9.93;66.73;99363.13;4476078;31;33943;-81
2024/03/10 07:54:00;;;;;;;5.72;1.98;;;;;;;9.92;67.15;99360.53;4475573;31;33812;-81
2024/03/10 07:56:28;;;;;;;1.92;1.73;;;;;;;10.33;66.06;99362.97;4491852;31;34031;-81
2024/03/10 07:59:00;;;;;;;1.27;1.25;;;;;;;10.46;65.26;99367.56;4477961;31;33529;-81
2024/03/10 08:01:28;;;;;;;3.00;2.80;;;;;;;10.60;65.10;99364.25;4489686;31;32573;-81
2024/03/10 08:03:57;;;;;;;1.95;1.67;;;;;;;10.82;64.16;99369.25;4462758;31;33553;-81
2024/03/10 08:06:25;;;;;;;1.08;0.68;;;;;;;10.48;65.02;99376.25;4487629;31;33925;-81
2024/03/10 08:08:53;;;;;;;1.95;1.42;;;;;;;10.64;64.24;99367.59;4471843;31;33449;-81
2024/03/10 08:11:22;;;;;;;0.82;0.80;;;;;;;10.70;64.63;99368.13;4489160;31;33588;-81
2024/03/10 08:13:50;;;;;;;1.90;1.80;;;;;;;10.75;64.51;99357.31;4491202;31;34956;-82
2024/03/10 08:16:18;;;;;;;1.95;1.77;;;;;;;10.38;65.39;99367.09;4476262;31;33269;-81
2024/03/10 08:18:47;;;;;;;3.72;1.80;;;;;;;10.40;65.48;99365.25;4479097;31;34779;-81
2024/03/10 08:21:18;;;;;;;1.40;1.30;;;;;;;10.29;66.65;99364.91;4491831;31;32922;-81
2024/03/10 08:23:46;;;;;;;1.20;1.20;;;;;;;10.21;66.74;99362.63;4479177;31;33874;-81
2024/03/10 08:26:14;;;;;;;2.58;2.22;;;;;;;10.66;65.34;99363.06;4492261;31;33939;-82
2024/03/10 08:28:42;;;;;;;4.82;1.17;;;;;;;10.63;65.46;99368.50;4493221;31;34826;-81
2024/03/10 08:31:12;;;;;;;4.35;2.92;;;;;;;10.57;65.61;99363.53;4486417;31;33279;-81
2024/03/10 08:33:40;;;;;;;0.75;0.75;;;;;;;10.49;65.80;99364.78;4491057;31;34543;-80
2024/03/10 08:36:08;;;;;;;0.62;0.62;;;;;;;10.74;65.10;99350.34;4494157;31;34652;-82
2024/03/10 08:38:37;;;;;;;4.20;1.58;;;;;;;10.18;66.88;99352.22;4488534;31;34200;-82
2024/03/10 08:41:05;;;;;;;1.37;1.37;;;;;;;10.74;65.65;99350.34;4492710;31;33636;-81
2024/03/10 08:43:34;;;;;;;3.25;2.12;;;;;;;10.76;65.85;99351.94;4478649;31;32763;-81
2024/03/10 08:46:02;;;;;;;1.33;1.30;;;;;;;10.71;66.20;99346.03;4490139;31;34762;-81
2024/03/10 08:48:30;;;;;;;2.22;2.12;;;;;;;11.12;64.92;99339.56;4473144;31;33031;-84
2024/03/10 08:50:58;;;;;;;1.70;1.15;;;;;;;11.25;64.74;99345.87;4479642;31;32906;-82
2024/03/10 08:53:26;;;;;;;2.75;2.50;;;;;;;11.50;63.96;99338.31;4489597;31;35068;-82
2024/03/10 08:55:55;;;;;;;3.58;2.08;;;;;;;11.43;64.33;99336.94;4476821;31;33848;-82
2024/03/10 08:58:23;;;;;;;1.02;0.98;;;;;;;11.93;62.69;99333.31;4464684;31;32655;-83
2024/03/10 09:00:51;;;;;;;2.08;1.77;;;;;;;11.70;62.55;99336.38;4476627;31;32998;-83
2024/03/10 09:03:19;;;;;;;4.90;2.22;;;;;;;11.46;63.89;99326.22;4478060;31;32715;-82
2024/03/10 09:05:46;;;;;;;0.65;0.65;;;;;;;11.72;64.09;99329.19;4478132;31;34578;-82
2024/03/10 09:08:14;;;;;;;3.87;1.67;;;;;;;11.82;63.70;99330.44;4491183;31;34587;-82
2024/03/10 09:10:43;;;;;;;3.15;2.83;;;;;;;12.05;63.03;99327.31;4494161;31;34054;-82
2024/03/10 09:13:29;;;;;;;1.77;1.67;;;;;;;12.12;62.30;99327.00;4469515;31;33284;-82
2024/03/10 09:15:57;;;;;;;2.20;2.00;;;;;;;12.42;62.26;99319.03;4475519;31;33156;-82
2024/03/10 09:18:25;;;;;;;3.47;3.03;;;;;;;12.76;62.08;99315.22;4475255;31;32791;-82
2024/03/10 09:20:54;;;;;;;1.62;1.55;;;;;;;12.99;59.88;99313.84;4491066;31;34368;-82
2024/03/10 09:23:21;;;;;;;0.77;0.77;;;;;;;12.71;60.49;99310.22;4489314;31;33897;-82
2024/03/10 09:25:49;;;;;;;3.78;2.70;;;;;;;12.78;59.81;99303.62;4476068;31;33376;-82
2024/03/10 09:28:19;;;;;;;2.30;1.80;;;;;;;12.90;59.47;99312.59;4476725;31;33427;-83
2024/03/10 09:30:48;;;;;;;0.93;0.93;;;;;;;12.92;59.86;99305.44;4492950;31;34042;-82
2024/03/10 09:33:17;;;;;;;1.60;0.95;;;;;;;12.78;60.11;99310.72;4492208;31;36005;-82
2024/03/10 09:35:45;;;;;;;2.62;2.42;;;;;;;12.98;59.96;99297.09;4490292;31;34027;-81
2024/03/10 09:38:12;;;;;;;1.95;1.85;;;;;;;12.90;60.45;99303.81;4476457;31;34206;-81
2024/03/10 09:40:40;;;;;;;4.10;3.70;;;;;;;12.52;60.96;99309.59;4465063;31;32236;-84
2024/03/10 09:43:11;;;;;;;3.20;2.65;;;;;;;12.95;60.44;99291.97;4478932;31;33790;-82
2024/03/10 09:45:43;;;;;;;3.12;2.87;;;;;;;12.86;60.25;99297.81;4475531;31;34665;-82
2024/03/10 09:48:11;;;;;;;2.75;1.65;;;;;;;13.11;60.01;99304.28;4479153;31;34730;-83
2024/03/10 09:50:40;;;;;;;2.17;2.00;;;;;;;12.77;60.79;99298.38;4476800;31;33506;-83
2024/03/10 09:53:08;;;;;;;4.32;1.55;;;;;;;13.19;60.34;99294.03;4474760;31;34136;-83
2024/03/10 09:55:36;;;;;;;4.32;3.55;;;;;;;13.37;58.76;99289.44;4490870;31;34878;-83
2024/03/10 09:58:12;;;;;;;8.40;3.53;;;;;;;13.58;58.44;99301.34;4477325;31;34038;-84
2024/03/10 10:00:53;;;;;;;6.43;2.30;;;;;;;13.44;58.74;99296.91;4479077;31;33615;-82
2024/03/10 10:03:21;;;;;;;3.78;3.35;;;;;;;13.36;58.60;99293.88;4481050;31;33960;-82
2024/03/10 10:05:55;;;;;;;4.65;1.70;;;;;;;13.00;60.40;99289.03;4467280;31;33895;-82
2024/03/10 10:08:24;;;;;;;2.17;2.03;;;;;;;13.19;59.88;99294.03;4474418;31;34063;-81
2024/03/10 10:10:52;;;;;;;1.27;1.25;;;;;;;13.54;59.18;99286.56;4479850;31;34152;-81
2024/03/10 10:13:22;;;;;;;8.30;2.25;;;;;;;13.54;59.11;99297.19;4487718;31;34217;-82
2024/03/10 10:15:54;;;;;;;2.42;2.22;;;;;;;13.64;59.02;99284.16;4480979;31;34021;-82
2024/03/10 10:18:22;;;;;;;6.03;3.12;;;;;;;13.25;59.64;99288.41;4477952;31;33353;-81
2024/03/10 10:20:55;;;;;;;0.73;0.73;;;;;;;13.64;58.94;99274.41;4475244;31;34301;-82
2024/03/10 10:23:23;;;;;;;2.80;2.55;;;;;;;13.73;58.37;99275.63;4490516;31;34612;-82
2024/03/10 10:25:53;;;;;;;2.70;2.47;;;;;;;13.43;59.41;99275.78;4477296;31;33315;-81
2024/03/10 10:28:22;;;;;;;2.50;2.30;;;;;;;13.61;59.45;99263.13;4490249;31;34177;-82
2024/03/10 10:30:49;;;;;;;5.40;2.72;;;;;;;14.15;58.76;99260.44;4490002;31;32271;-82
2024/03/10 10:33:17;;;;;;;3.12;2.85;;;;;;;14.31;57.72;99264.63;4479127;31;34589;-82
2024/03/10 10:35:45;;;;;;;2.28;1.98;;;;;;;13.98;58.49;99264.25;4489384;31;33694;-82
2024/03/10 10:38:13;;;;;;;7.35;1.73;;;;;;;14.20;58.01;99261.03;4471416;31;33394;-82
2024/03/10 10:40:54;;;;;;;3.78;2.75;;;;;;;14.28;57.28;99263.97;4455714;31;33877;-82
2024/03/10 10:43:22;;;;;;;3.10;2.83;;;;;;;14.24;58.20;99249.22;4477619;31;33755;-82
2024/03/10 10:45:51;;;;;;;7.57;2.30;;;;;;;14.56;56.99;99258.53;4465238;31;32844;-82
2024/03/10 10:48:20;;;;;;;1.95;1.67;;;;;;;14.47;57.58;99250.31;4491640;31;34036;-82
2024/03/10 10:50:48;;;;;;;1.37;1.27;;;;;;;14.72;57.33;99249.53;4478240;31;34106;-82
2024/03/10 10:53:17;;;;;;;1.67;1.12;;;;;;;14.81;57.19;99256.81;4474714;31;33492;-82
2024/03/10 10:55:45;;;;;;;1.95;1.20;;;;;;;14.32;58.26;99238.94;4477563;31;33581;-82
2024/03/10 10:58:16;;;;;;;3.50;2.58;;;;;;;14.56;57.42;99241.75;4477302;31;32797;-81
2024/03/10 11:01:04;;;;;;;3.47;2.72;;;;;;;14.69;57.35;99241.75;4490808;31;34044;-81
2024/03/10 11:03:36;;;;;;;2.87;1.10;;;;;;;14.84;56.90;99233.53;4465417;31;33343;-81
2024/03/10 11:06:06;;;;;;;2.20;2.05;;;;;;;14.72;57.91;99228.25;4490799;31;33900;-81
2024/03/10 11:08:40;;;;;;;4.35;2.12;;;;;;;14.86;57.00;99233.47;4489286;31;32521;-80
2024/03/10 11:11:12;;;;;;;6.10;2.12;;;;;;;15.04;56.45;99223.31;4482935;31;34516;-82
2024/03/10 11:13:40;;;;;;;1.87;1.77;;;;;;;14.96;56.97;99223.03;4487865;31;33953;-81
2024/03/10 11:16:14;;;;;;;1.90;1.75;;;;;;;15.13;56.28;99220.00;4476867;31;33081;-82
2024/03/10 11:18:42;;;;;;;3.35;2.47;;;;;;;15.30;55.33;99210.81;4488052;31;34240;-83
2024/03/10 11:21:13;;;;;;;1.30;1.23;;;;;;;14.44;58.06;99224.81;4475897;31;34012;-83
2024/03/10 11:23:50;;;;;;;1.75;1.25;;;;;;;14.39;58.08;99211.00;4469607;31;31923;-83
2024/03/10 11:26:25;;;;;;;8.07;1.55;;;;;;;14.70;57.51;99211.56;4476853;31;34487;-83
2024/03/10 11:28:59;;;;;;;7.37;1.95;;;;;;;14.72;58.22;99218.47;4492303;31;33744;-83
2024/03/10 11:31:33;;;;;;;2.22;2.08;;;;;;;15.00;56.88;99203.22;4479024;31;32581;-83
2024/03/10 11:34:04;;;;;;;3.60;1.87;;;;;;;15.32;56.24;99201.75;4491629;31;34656;-83
2024/03/10 11:36:39;;;;;;;3.55;2.42;;;;;;;15.11;56.62;99205.97;4471344;31;32703;-83
2024/03/10 11:39:07;;;;;;;1.55;0.90;;;;;;;14.71;57.76;99205.28;4489331;31;34700;-83
2024/03/10 11:41:38;;;;;;;2.67;1.87;;;;;;;15.06;56.82;99202.78;4478706;31;32137;-83
2024/03/10 11:44:06;;;;;;;7.93;1.45;;;;;;;14.73;57.96;99198.06;4476615;31;33826;-84
2024/03/10 11:46:35;;;;;;;3.87;2.20;;;;;;;14.89;57.42;99185.37;4465292;31;33048;-83
2024/03/10 11:49:04;;;;;;;3.53;2.55;;;;;;;15.14;57.51;99186.28;4488856;31;33891;-83
2024/03/10 11:51:33;;;;;;;3.83;2.25;;;;;;;15.16;57.02;99176.41;4488665;31;32864;-84
2024/03/10 11:54:07;;;;;;;4.57;2.55;;;;;;;14.67;58.66;99183.41;4491120;31;33740;-83
2024/03/10 11:56:36;;;;;;;0.75;0.75;;;;;;;15.14;58.00;99168.50;4466686;31;34430;-83
2024/03/10 11:59:04;;;;;;;1.52;1.45;;;;;;;15.27;56.93;99171.13;4490187;31;34187;-83
2024/03/10 12:01:32;;;;;;;2.97;1.92;;;;;;;15.08;58.19;99161.81;4476152;31;32493;-83
2024/03/10 12:04:05;;;;;;;6.47;1.77;;;;;;;15.30;57.93;99169.09;4449989;31;35319;-82
2024/03/10 12:06:34;;;;;;;1.75;1.65;;;;;;;15.45;56.53;99156.50;4490020;31;34187;-83